Evelyn Maersk — OXHV2 — position and weather

sailwx.info

Track history (hours):
 
Tides and Currents Weather Stations Pressure Air Temp Water Temp Dewpoint Dewpoint Depression Visibility Wind Speed Wind Dir Waves Ship Positions

Evelyn Maersk

Last reported at 2015-Jan-31 02:06 UTC. Time now 2015-Jan-31 07:12 UTC.
Position N 22°30' E 113°50'.

Length 398 m; draft 6.9 m.

Type: Cargo ship. MMSI: 220496000.

Date/timePositionNaut miles runAvg speedWind from/ knotsBaromVisibWave heightAir tempDewpointWater temp
2015-Jan-31 02:06N 22°30' E 113°50'0 0.0
2015-Jan-30 23:12N 22°30' E 113°50'0 0.0
2015-Jan-30 22:24N 22°30' E 113°50'0 0.0
2015-Jan-30 19:12N 22°30' E 113°50'0 0.0
2015-Jan-30 18:24N 22°30' E 113°50'0 0.0
2015-Jan-30 17:12N 22°30' E 113°50'0 0.0
2015-Jan-30 16:30N 22°30' E 113°50'0 0.0
2015-Jan-30 13:30N 22°30' E 113°50'0 0.0
2015-Jan-30 10:30N 22°30' E 113°50'0 0.0
2015-Jan-30 09:24N 22°30' E 113°50'0 0.0
2015-Jan-30 08:30N 22°30' E 113°50'0 0.0
2015-Jan-30 07:24N 22°30' E 113°50'0 0.0
2015-Jan-30 06:30N 22°30' E 113°50'0 0.0
2015-Jan-30 05:30N 22°30' E 113°50'0 0.0
2015-Jan-30 04:30N 22°30' E 113°50'0 0.0
2015-Jan-30 02:30N 22°30' E 113°50'0 0.0
2015-Jan-30 01:30N 22°30' E 113°50'0 0.0
2015-Jan-30 00:30N 22°30' E 113°50'0 0.0
2015-Jan-29 23:24N 22°30' E 113°50'0 0.0
2015-Jan-29 22:12N 22°30' E 113°50'0 0.0
2015-Jan-29 21:30N 22°30' E 113°50'0 0.0
2015-Jan-29 20:30N 22°30' E 113°50'0 0.0
2015-Jan-29 19:24N 22°30' E 113°50'0 0.0
2015-Jan-29 18:18N 22°30' E 113°50'0 0.0
2015-Jan-29 17:30N 22°30' E 113°50'0 0.0
2015-Jan-29 16:12N 22°30' E 113°50'0 0.0
2015-Jan-29 15:30N 22°30' E 113°50'0 0.0
2015-Jan-29 14:24N 22°30' E 113°50'0 0.0
2015-Jan-29 13:18N 22°30' E 113°50'0 0.0
2015-Jan-29 10:06N 22°30' E 113°50'0 0.0
2015-Jan-29 09:30N 22°30' E 113°50'0 0.0
2015-Jan-29 08:30N 22°30' E 113°50'0 0.0
2015-Jan-29 07:30N 22°30' E 113°50'0 0.0
2015-Jan-29 06:30N 22°30' E 113°50'0 0.0
2015-Jan-29 05:24N 22°30' E 113°50'0 0.0
2015-Jan-29 04:30N 22°30' E 113°50'0 0.0
2015-Jan-29 03:30N 22°30' E 113°50'0 0.0
2015-Jan-29 02:30N 22°30' E 113°50'0 0.0
2015-Jan-29 01:30N 22°30' E 113°50'0 0.0
2015-Jan-28 12:24N 22°30' E 113°50'0 0.0
2015-Jan-28 11:06N 22°30' E 113°50'0 0.0
2015-Jan-28 10:30N 22°30' E 113°50'0 0.0
2015-Jan-28 09:30N 22°30' E 113°50'0 0.0
2015-Jan-28 08:30N 22°30' E 113°50'0 0.0
2015-Jan-28 07:24N 22°30' E 113°50'0 0.0
2015-Jan-28 06:24N 22°30' E 113°50'0 0.1
2015-Jan-28 05:33N 22°30' E 113°50'1 1.0
2015-Jan-28 04:32N 22°30' E 113°51'7 7.3
2015-Jan-28 03:33N 22°23' E 113°50'8 8.0
2015-Jan-28 02:33N 22°15' E 113°49'7 7.5
2015-Jan-28 01:33N 22°08' E 113°51'5 4.7
2015-Jan-28 00:33N 22°03' E 113°53'2 0.1
2015-Jan-26 23:16N 22°05' E 113°55'0 0.0
2015-Jan-26 17:10N 22°05' E 113°55'0 0.0
2015-Jan-26 15:10N 22°05' E 113°55'0 0.0
2015-Jan-26 11:10N 22°05' E 113°55'0 0.0
2015-Jan-26 02:04N 22°05' E 113°55'0 0.0
2015-Jan-25 23:22N 22°05' E 113°55'0 0.0
2015-Jan-25 22:28N 22°05' E 113°55'0 0.0
2015-Jan-25 19:31N 22°05' E 113°55'0 0.0
2015-Jan-25 17:22N 22°05' E 113°55'0 0.0
2015-Jan-24 22:07N 22°05' E 113°55'0 0.0
2015-Jan-24 17:25N 22°05' E 113°55'0 0.0
2015-Jan-24 15:28N 22°05' E 113°55'0 0.0
2015-Jan-24 04:28N 22°05' E 113°55'0 0.0
2015-Jan-23 21:22N 22°05' E 113°55'0 0.0
2015-Jan-23 16:04N 22°05' E 113°55'0 0.0
2015-Jan-23 15:28N 22°05' E 113°55'0 0.0
2015-Jan-23 14:04N 22°05' E 113°55'0 0.0
2015-Jan-22 20:16N 22°05' E 113°55'0 0.0
2015-Jan-22 19:28N 22°05' E 113°55'0 0.0
2015-Jan-21 23:10N 22°05' E 113°55'0 0.1
2015-Jan-21 21:22N 22°05' E 113°55'0 0.1
2015-Jan-21 20:16N 22°05' E 113°55'0 0.0
2015-Jan-21 19:22N 22°05' E 113°55'0 0.0
2015-Jan-21 13:28N 22°05' E 113°55'0 0.1
2015-Jan-21 10:29N 22°05' E 113°55'3 2.9
2015-Jan-21 09:28N 22°07' E 113°57'1611.9
2015-Jan-21 08:09N 22°09' E 114°14'712.0
2015-Jan-21 07:33N 22°09' E 114°22'1212.2
2015-Jan-21 06:32N 22°11' E 114°35'  
Track history (hours):
 
Tides and Currents Weather Stations Pressure Air Temp Water Temp Dewpoint Dewpoint Depression Visibility Wind Speed Wind Dir Waves Ship Positions

Evelyn Maersk

Last reported at 2015-Jan-31 02:06 UTC. Time now 2015-Jan-31 07:12 UTC.
Position N 22°30' E 113°50'.

Length 398 m; draft 6.9 m.

Type: Cargo ship. MMSI: 220496000.

Date/timePositionNaut miles runAvg speedWind from/ knotsBaromVisibWave heightAir tempDewpointWater temp
2015-Jan-31 02:06N 22°30' E 113°50'0 0.0
2015-Jan-30 23:12N 22°30' E 113°50'0 0.0
2015-Jan-30 22:24N 22°30' E 113°50'0 0.0
2015-Jan-30 19:12N 22°30' E 113°50'0 0.0
2015-Jan-30 18:24N 22°30' E 113°50'0 0.0
2015-Jan-30 17:12N 22°30' E 113°50'0 0.0
2015-Jan-30 16:30N 22°30' E 113°50'0 0.0
2015-Jan-30 13:30N 22°30' E 113°50'0 0.0
2015-Jan-30 10:30N 22°30' E 113°50'0 0.0
2015-Jan-30 09:24N 22°30' E 113°50'0 0.0
2015-Jan-30 08:30N 22°30' E 113°50'0 0.0
2015-Jan-30 07:24N 22°30' E 113°50'0 0.0
2015-Jan-30 06:30N 22°30' E 113°50'0 0.0
2015-Jan-30 05:30N 22°30' E 113°50'0 0.0
2015-Jan-30 04:30N 22°30' E 113°50'0 0.0
2015-Jan-30 02:30N 22°30' E 113°50'0 0.0
2015-Jan-30 01:30N 22°30' E 113°50'0 0.0
2015-Jan-30 00:30N 22°30' E 113°50'0 0.0
2015-Jan-29 23:24N 22°30' E 113°50'0 0.0
2015-Jan-29 22:12N 22°30' E 113°50'0 0.0
2015-Jan-29 21:30N 22°30' E 113°50'0 0.0
2015-Jan-29 20:30N 22°30' E 113°50'0 0.0
2015-Jan-29 19:24N 22°30' E 113°50'0 0.0
2015-Jan-29 18:18N 22°30' E 113°50'0 0.0
2015-Jan-29 17:30N 22°30' E 113°50'0 0.0
2015-Jan-29 16:12N 22°30' E 113°50'0 0.0
2015-Jan-29 15:30N 22°30' E 113°50'0 0.0
2015-Jan-29 14:24N 22°30' E 113°50'0 0.0
2015-Jan-29 13:18N 22°30' E 113°50'0 0.0
2015-Jan-29 10:06N 22°30' E 113°50'0 0.0
2015-Jan-29 09:30N 22°30' E 113°50'0 0.0
2015-Jan-29 08:30N 22°30' E 113°50'0 0.0
2015-Jan-29 07:30N 22°30' E 113°50'0 0.0
2015-Jan-29 06:30N 22°30' E 113°50'0 0.0
2015-Jan-29 05:24N 22°30' E 113°50'0 0.0
2015-Jan-29 04:30N 22°30' E 113°50'0 0.0
2015-Jan-29 03:30N 22°30' E 113°50'0 0.0
2015-Jan-29 02:30N 22°30' E 113°50'0 0.0
2015-Jan-29 01:30N 22°30' E 113°50'0 0.0
2015-Jan-28 12:24N 22°30' E 113°50'0 0.0
2015-Jan-28 11:06N 22°30' E 113°50'0 0.0
2015-Jan-28 10:30N 22°30' E 113°50'0 0.0
2015-Jan-28 09:30N 22°30' E 113°50'0 0.0
2015-Jan-28 08:30N 22°30' E 113°50'0 0.0
2015-Jan-28 07:24N 22°30' E 113°50'0 0.0
2015-Jan-28 06:24N 22°30' E 113°50'0 0.1
2015-Jan-28 05:33N 22°30' E 113°50'1 1.0
2015-Jan-28 04:32N 22°30' E 113°51'7 7.3
2015-Jan-28 03:33N 22°23' E 113°50'8 8.0
2015-Jan-28 02:33N 22°15' E 113°49'7 7.5
2015-Jan-28 01:33N 22°08' E 113°51'5 4.7
2015-Jan-28 00:33N 22°03' E 113°53'2 0.1
2015-Jan-26 23:16N 22°05' E 113°55'0 0.0
2015-Jan-26 17:10N 22°05' E 113°55'0 0.0
2015-Jan-26 15:10N 22°05' E 113°55'0 0.0
2015-Jan-26 11:10N 22°05' E 113°55'0 0.0
2015-Jan-26 02:04N 22°05' E 113°55'0 0.0
2015-Jan-25 23:22N 22°05' E 113°55'0 0.0
2015-Jan-25 22:28N 22°05' E 113°55'0 0.0
2015-Jan-25 19:31N 22°05' E 113°55'0 0.0
2015-Jan-25 17:22N 22°05' E 113°55'0 0.0
2015-Jan-24 22:07N 22°05' E 113°55'0 0.0
2015-Jan-24 17:25N 22°05' E 113°55'0 0.0
2015-Jan-24 15:28N 22°05' E 113°55'0 0.0
2015-Jan-24 04:28N 22°05' E 113°55'0 0.0
2015-Jan-23 21:22N 22°05' E 113°55'0 0.0
2015-Jan-23 16:04N 22°05' E 113°55'0 0.0
2015-Jan-23 15:28N 22°05' E 113°55'0 0.0
2015-Jan-23 14:04N 22°05' E 113°55'0 0.0
2015-Jan-22 20:16N 22°05' E 113°55'0 0.0
2015-Jan-22 19:28N 22°05' E 113°55'0 0.0
2015-Jan-21 23:10N 22°05' E 113°55'0 0.1
2015-Jan-21 21:22N 22°05' E 113°55'0 0.1
2015-Jan-21 20:16N 22°05' E 113°55'0 0.0
2015-Jan-21 19:22N 22°05' E 113°55'0 0.0
2015-Jan-21 13:28N 22°05' E 113°55'0 0.1
2015-Jan-21 10:29N 22°05' E 113°55'3 2.9
2015-Jan-21 09:28N 22°07' E 113°57'1611.9
2015-Jan-21 08:09N 22°09' E 114°14'712.0
2015-Jan-21 07:33N 22°09' E 114°22'1212.2
2015-Jan-21 06:32N 22°11' E 114°35'  

Dump ship's entire track history